sensor_id;sensor_type;location;lat;lon;timestamp;pressure;altitude;pressure_sealevel;temperature
6498;BMP280;3282;48.358;10.958;2022-12-16T00:00:04;94673.41;;;0.68
6498;BMP280;3282;48.358;10.958;2022-12-16T00:02:31;94671.34;;;0.74
6498;BMP280;3282;48.358;10.958;2022-12-16T00:04:58;94671.56;;;0.69
6498;BMP280;3282;48.358;10.958;2022-12-16T00:07:24;94671.66;;;0.60
6498;BMP280;3282;48.358;10.958;2022-12-16T00:09:51;94681.59;;;0.54
6498;BMP280;3282;48.358;10.958;2022-12-16T00:12:17;94675.56;;;0.54
6498;BMP280;3282;48.358;10.958;2022-12-16T00:14:44;94690.06;;;0.60
6498;BMP280;3282;48.358;10.958;2022-12-16T00:17:11;94682.16;;;0.60
6498;BMP280;3282;48.358;10.958;2022-12-16T00:19:37;94695.09;;;0.65
6498;BMP280;3282;48.358;10.958;2022-12-16T00:22:04;94675.88;;;0.40
6498;BMP280;3282;48.358;10.958;2022-12-16T00:24:30;94681.38;;;0.47
6498;BMP280;3282;48.358;10.958;2022-12-16T00:26:57;94698.47;;;0.53
6498;BMP280;3282;48.358;10.958;2022-12-16T00:29:23;94690.28;;;0.33
6498;BMP280;3282;48.358;10.958;2022-12-16T00:31:50;94702.72;;;0.33
6498;BMP280;3282;48.358;10.958;2022-12-16T00:34:18;94705.44;;;0.37
6498;BMP280;3282;48.358;10.958;2022-12-16T00:36:44;94688.22;;;0.27
6498;BMP280;3282;48.358;10.958;2022-12-16T00:39:11;94694.28;;;0.40
6498;BMP280;3282;48.358;10.958;2022-12-16T00:41:37;94699.31;;;0.32
6498;BMP280;3282;48.358;10.958;2022-12-16T00:44:04;94701.50;;;0.30
6498;BMP280;3282;48.358;10.958;2022-12-16T00:46:30;94706.06;;;0.33
6498;BMP280;3282;48.358;10.958;2022-12-16T00:48:57;94706.84;;;0.34
6498;BMP280;3282;48.358;10.958;2022-12-16T00:51:23;94710.25;;;0.34
6498;BMP280;3282;48.358;10.958;2022-12-16T00:53:50;94709.84;;;0.32
6498;BMP280;3282;48.358;10.958;2022-12-16T00:56:17;94721.44;;;0.31
6498;BMP280;3282;48.358;10.958;2022-12-16T00:58:43;94722.09;;;0.28
6498;BMP280;3282;48.358;10.958;2022-12-16T01:01:10;94727.09;;;0.21
6498;BMP280;3282;48.358;10.958;2022-12-16T01:03:37;94725.75;;;0.15
6498;BMP280;3282;48.358;10.958;2022-12-16T01:06:14;94728.69;;;0.13
6498;BMP280;3282;48.358;10.958;2022-12-16T01:08:41;94723.06;;;0.23
6498;BMP280;3282;48.358;10.958;2022-12-16T01:11:15;94703.44;;;0.21
6498;BMP280;3282;48.358;10.958;2022-12-16T01:13:43;94725.16;;;0.30
6498;BMP280;3282;48.358;10.958;2022-12-16T01:16:09;94722.63;;;0.34
6498;BMP280;3282;48.358;10.958;2022-12-16T01:18:36;94721.13;;;0.33
6498;BMP280;3282;48.358;10.958;2022-12-16T01:21:05;94721.03;;;0.42
6498;BMP280;3282;48.358;10.958;2022-12-16T01:23:32;94725.50;;;0.41
6498;BMP280;3282;48.358;10.958;2022-12-16T01:26:00;94729.03;;;0.45
6498;BMP280;3282;48.358;10.958;2022-12-16T01:28:27;94736.72;;;0.51
6498;BMP280;3282;48.358;10.958;2022-12-16T01:30:58;94738.50;;;0.59
6498;BMP280;3282;48.358;10.958;2022-12-16T01:33:28;94738.50;;;0.59
6498;BMP280;3282;48.358;10.958;2022-12-16T01:36:01;94736.19;;;0.57
6498;BMP280;3282;48.358;10.958;2022-12-16T01:38:28;94733.75;;;0.52
6498;BMP280;3282;48.358;10.958;2022-12-16T01:40:55;94742.53;;;0.44
6498;BMP280;3282;48.358;10.958;2022-12-16T01:43:27;94728.66;;;0.22
6498;BMP280;3282;48.358;10.958;2022-12-16T01:48:47;94746.78;;;-0.07
6498;BMP280;3282;48.358;10.958;2022-12-16T01:54:03;94725.88;;;-0.03
6498;BMP280;3282;48.358;10.958;2022-12-16T01:56:32;94722.78;;;-0.05
6498;BMP280;3282;48.358;10.958;2022-12-16T01:59:01;94727.72;;;-0.04
6498;BMP280;3282;48.358;10.958;2022-12-16T02:01:28;94715.94;;;-0.19
6498;BMP280;3282;48.358;10.958;2022-12-16T02:03:57;94737.22;;;-0.11
6498;BMP280;3282;48.358;10.958;2022-12-16T02:06:28;94743.19;;;-0.02
6498;BMP280;3282;48.358;10.958;2022-12-16T02:08:56;94741.78;;;0.01
6498;BMP280;3282;48.358;10.958;2022-12-16T02:17:12;94730.47;;;-0.21
6498;BMP280;3282;48.358;10.958;2022-12-16T02:28:10;94766.94;;;-0.50
6498;BMP280;3282;48.358;10.958;2022-12-16T02:31:22;94775.41;;;-0.44
6498;BMP280;3282;48.358;10.958;2022-12-16T02:34:07;94787.13;;;-0.42
6498;BMP280;3282;48.358;10.958;2022-12-16T02:36:54;94793.59;;;-0.39
6498;BMP280;3282;48.358;10.958;2022-12-16T02:39:33;94796.34;;;-0.27
6498;BMP280;3282;48.358;10.958;2022-12-16T02:44:43;94788.41;;;-0.18
6498;BMP280;3282;48.358;10.958;2022-12-16T02:47:12;94786.63;;;-0.26
6498;BMP280;3282;48.358;10.958;2022-12-16T02:49:46;94789.72;;;-0.24
6498;BMP280;3282;48.358;10.958;2022-12-16T02:52:13;94787.38;;;-0.34
6498;BMP280;3282;48.358;10.958;2022-12-16T02:54:40;94789.44;;;-0.31
6498;BMP280;3282;48.358;10.958;2022-12-16T03:00:06;94797.91;;;-0.34
6498;BMP280;3282;48.358;10.958;2022-12-16T03:03:05;94800.72;;;-0.40
6498;BMP280;3282;48.358;10.958;2022-12-16T03:05:46;94804.56;;;-0.37
6498;BMP280;3282;48.358;10.958;2022-12-16T03:08:27;94799.94;;;-0.31
6498;BMP280;3282;48.358;10.958;2022-12-16T03:11:02;94798.19;;;-0.27
6498;BMP280;3282;48.358;10.958;2022-12-16T03:13:42;94801.47;;;-0.30
6498;BMP280;3282;48.358;10.958;2022-12-16T03:16:13;94795.91;;;-0.38
6498;BMP280;3282;48.358;10.958;2022-12-16T03:18:43;94805.22;;;-0.49
6498;BMP280;3282;48.358;10.958;2022-12-16T03:21:12;94801.38;;;-0.52
6498;BMP280;3282;48.358;10.958;2022-12-16T03:23:44;94803.69;;;-0.50
6498;BMP280;3282;48.358;10.958;2022-12-16T03:26:19;94799.22;;;-0.50
6498;BMP280;3282;48.358;10.958;2022-12-16T03:28:55;94805.22;;;-0.49
6498;BMP280;3282;48.358;10.958;2022-12-16T03:36:54;94815.72;;;-0.49
6498;BMP280;3282;48.358;10.958;2022-12-16T03:39:25;94793.97;;;-0.50
6498;BMP280;3282;48.358;10.958;2022-12-16T03:41:53;94803.31;;;-0.31
6498;BMP280;3282;48.358;10.958;2022-12-16T03:44:22;94803.91;;;-0.25
6498;BMP280;3282;48.358;10.958;2022-12-16T03:46:51;94811.47;;;-0.23
6498;BMP280;3282;48.358;10.958;2022-12-16T03:49:17;94789.56;;;-0.37
6498;BMP280;3282;48.358;10.958;2022-12-16T03:51:44;94808.72;;;-0.27
6498;BMP280;3282;48.358;10.958;2022-12-16T03:54:10;94812.63;;;-0.42
6498;BMP280;3282;48.358;10.958;2022-12-16T03:56:37;94796.72;;;-0.46
6498;BMP280;3282;48.358;10.958;2022-12-16T03:59:04;94807.09;;;-0.50
6498;BMP280;3282;48.358;10.958;2022-12-16T04:01:30;94818.84;;;-0.56
6498;BMP280;3282;48.358;10.958;2022-12-16T04:03:57;94822.28;;;-0.64
6498;BMP280;3282;48.358;10.958;2022-12-16T04:06:23;94829.19;;;-0.51
6498;BMP280;3282;48.358;10.958;2022-12-16T04:08:50;94837.66;;;-0.45
6498;BMP280;3282;48.358;10.958;2022-12-16T04:11:16;94840.09;;;-0.40
6498;BMP280;3282;48.358;10.958;2022-12-16T04:14:01;94837.03;;;-0.42
6498;BMP280;3282;48.358;10.958;2022-12-16T04:16:47;94846.63;;;-0.46
6498;BMP280;3282;48.358;10.958;2022-12-16T04:19:34;94848.44;;;-0.38
6498;BMP280;3282;48.358;10.958;2022-12-16T04:22:34;94826.69;;;-0.47
6498;BMP280;3282;48.358;10.958;2022-12-16T04:25:26;94844.88;;;-0.24
6498;BMP280;3282;48.358;10.958;2022-12-16T04:27:54;94841.63;;;-0.21
6498;BMP280;3282;48.358;10.958;2022-12-16T04:30:20;94841.78;;;-0.26
6498;BMP280;3282;48.358;10.958;2022-12-16T04:33:11;94845.38;;;-0.40
6498;BMP280;3282;48.358;10.958;2022-12-16T04:35:57;94855.59;;;-0.47
6498;BMP280;3282;48.358;10.958;2022-12-16T04:38:42;94840.03;;;-0.61
6498;BMP280;3282;48.358;10.958;2022-12-16T04:41:26;94873.78;;;-0.42
6498;BMP280;3282;48.358;10.958;2022-12-16T04:44:12;94871.78;;;-0.36
6498;BMP280;3282;48.358;10.958;2022-12-16T04:46:57;94891.22;;;-0.19
6498;BMP280;3282;48.358;10.958;2022-12-16T04:49:43;94894.28;;;-0.08
6498;BMP280;3282;48.358;10.958;2022-12-16T04:52:28;94896.84;;;0.01
6498;BMP280;3282;48.358;10.958;2022-12-16T04:55:13;94877.13;;;-0.15
6498;BMP280;3282;48.358;10.958;2022-12-16T04:58:00;94889.56;;;-0.24
6498;BMP280;3282;48.358;10.958;2022-12-16T05:00:47;94887.38;;;-0.31
6498;BMP280;3282;48.358;10.958;2022-12-16T05:03:33;94895.59;;;-0.32
6498;BMP280;3282;48.358;10.958;2022-12-16T05:06:18;94900.06;;;-0.24
6498;BMP280;3282;48.358;10.958;2022-12-16T05:09:04;94908.50;;;-0.09
6498;BMP280;3282;48.358;10.958;2022-12-16T05:11:49;94920.38;;;-0.03
6498;BMP280;3282;48.358;10.958;2022-12-16T05:14:35;94915.75;;;-0.06
6498;BMP280;3282;48.358;10.958;2022-12-16T05:17:20;94934.91;;;0.03
6498;BMP280;3282;48.358;10.958;2022-12-16T05:20:06;94934.44;;;0.01
6498;BMP280;3282;48.358;10.958;2022-12-16T05:22:54;94936.44;;;0.04
6498;BMP280;3282;48.358;10.958;2022-12-16T05:25:40;94933.78;;;0.04
6498;BMP280;3282;48.358;10.958;2022-12-16T05:28:25;94931.63;;;0.06
6498;BMP280;3282;48.358;10.958;2022-12-16T05:31:10;94879.06;;;-0.42
6498;BMP280;3282;48.358;10.958;2022-12-16T05:33:55;94935.22;;;-0.07
6498;BMP280;3282;48.358;10.958;2022-12-16T05:36:40;94932.03;;;-0.22
6498;BMP280;3282;48.358;10.958;2022-12-16T05:39:25;94879.72;;;-0.54
6498;BMP280;3282;48.358;10.958;2022-12-16T05:42:10;94945.88;;;-0.04
6498;BMP280;3282;48.358;10.958;2022-12-16T05:44:55;94949.91;;;-0.06
6498;BMP280;3282;48.358;10.958;2022-12-16T05:47:41;94957.16;;;-0.03
6498;BMP280;3282;48.358;10.958;2022-12-16T05:50:26;94891.16;;;-0.50
6498;BMP280;3282;48.358;10.958;2022-12-16T05:53:11;94958.59;;;-0.06
6498;BMP280;3282;48.358;10.958;2022-12-16T05:55:57;94953.47;;;-0.11
6498;BMP280;3282;48.358;10.958;2022-12-16T05:58:42;94964.16;;;-0.16
6498;BMP280;3282;48.358;10.958;2022-12-16T06:01:27;94970.38;;;-0.21
6498;BMP280;3282;48.358;10.958;2022-12-16T06:04:13;94971.91;;;-0.20
6498;BMP280;3282;48.358;10.958;2022-12-16T06:06:58;94980.53;;;-0.10
6498;BMP280;3282;48.358;10.958;2022-12-16T06:09:43;94979.91;;;0.02
6498;BMP280;3282;48.358;10.958;2022-12-16T06:12:28;94976.19;;;0.03
6498;BMP280;3282;48.358;10.958;2022-12-16T06:15:14;94983.13;;;0.07
6498;BMP280;3282;48.358;10.958;2022-12-16T06:17:59;94986.84;;;0.06
6498;BMP280;3282;48.358;10.958;2022-12-16T06:20:44;94996.56;;;0.06
6498;BMP280;3282;48.358;10.958;2022-12-16T06:23:29;94998.75;;;0.04
6498;BMP280;3282;48.358;10.958;2022-12-16T06:26:15;94990.13;;;-0.06
6498;BMP280;3282;48.358;10.958;2022-12-16T06:29:00;94999.50;;;0.04
6498;BMP280;3282;48.358;10.958;2022-12-16T06:31:45;95007.88;;;0.06
6498;BMP280;3282;48.358;10.958;2022-12-16T06:34:30;95023.31;;;0.08
6498;BMP280;3282;48.358;10.958;2022-12-16T06:37:15;95027.22;;;0.02
6498;BMP280;3282;48.358;10.958;2022-12-16T06:40:01;95030.59;;;0.02
6498;BMP280;3282;48.358;10.958;2022-12-16T06:42:46;95033.38;;;0.06
6498;BMP280;3282;48.358;10.958;2022-12-16T06:45:31;95021.31;;;0.05
6498;BMP280;3282;48.358;10.958;2022-12-16T06:48:16;95033.09;;;0.07
6498;BMP280;3282;48.358;10.958;2022-12-16T06:51:02;95032.78;;;0.00
6498;BMP280;3282;48.358;10.958;2022-12-16T06:53:47;95052.69;;;0.10
6498;BMP280;3282;48.358;10.958;2022-12-16T06:56:32;95053.94;;;0.13
6498;BMP280;3282;48.358;10.958;2022-12-16T06:59:17;95057.19;;;0.09
6498;BMP280;3282;48.358;10.958;2022-12-16T07:02:02;95048.41;;;0.05
6498;BMP280;3282;48.358;10.958;2022-12-16T07:04:47;95067.09;;;0.13
6498;BMP280;3282;48.358;10.958;2022-12-16T07:07:32;95072.53;;;0.07
6498;BMP280;3282;48.358;10.958;2022-12-16T07:10:17;95087.03;;;0.14
6498;BMP280;3282;48.358;10.958;2022-12-16T07:13:03;95091.66;;;0.17
6498;BMP280;3282;48.358;10.958;2022-12-16T07:15:47;95077.31;;;0.05
6498;BMP280;3282;48.358;10.958;2022-12-16T07:18:33;95097.53;;;0.14
6498;BMP280;3282;48.358;10.958;2022-12-16T07:21:18;95092.28;;;0.14
6498;BMP280;3282;48.358;10.958;2022-12-16T07:24:03;95118.72;;;0.17
6498;BMP280;3282;48.358;10.958;2022-12-16T07:26:48;95123.06;;;0.13
6498;BMP280;3282;48.358;10.958;2022-12-16T07:29:33;95134.19;;;0.10
6498;BMP280;3282;48.358;10.958;2022-12-16T07:32:19;95100.06;;;-0.08
6498;BMP280;3282;48.358;10.958;2022-12-16T07:35:04;95132.81;;;0.13
6498;BMP280;3282;48.358;10.958;2022-12-16T07:37:49;95118.44;;;0.01
6498;BMP280;3282;48.358;10.958;2022-12-16T07:40:34;95133.72;;;0.17
6498;BMP280;3282;48.358;10.958;2022-12-16T07:43:21;95114.88;;;0.15
6498;BMP280;3282;48.358;10.958;2022-12-16T07:46:06;95133.28;;;0.23
6498;BMP280;3282;48.358;10.958;2022-12-16T07:48:51;95136.06;;;0.18
6498;BMP280;3282;48.358;10.958;2022-12-16T07:51:43;95145.50;;;0.19
6498;BMP280;3282;48.358;10.958;2022-12-16T07:54:29;95137.31;;;0.03
6498;BMP280;3282;48.358;10.958;2022-12-16T07:57:14;95162.06;;;0.20
6498;BMP280;3282;48.358;10.958;2022-12-16T07:59:59;95169.63;;;0.30
6498;BMP280;3282;48.358;10.958;2022-12-16T08:02:44;95167.44;;;0.32
6498;BMP280;3282;48.358;10.958;2022-12-16T08:05:30;95125.88;;;-0.10
6498;BMP280;3282;48.358;10.958;2022-12-16T08:08:15;95137.47;;;0.07
6498;BMP280;3282;48.358;10.958;2022-12-16T08:10:59;95169.63;;;0.21
6498;BMP280;3282;48.358;10.958;2022-12-16T08:13:45;95185.56;;;0.25
6498;BMP280;3282;48.358;10.958;2022-12-16T08:16:30;95182.75;;;0.30
6498;BMP280;3282;48.358;10.958;2022-12-16T08:19:15;95199.75;;;0.42
6498;BMP280;3282;48.358;10.958;2022-12-16T08:22:00;95174.72;;;0.27
6498;BMP280;3282;48.358;10.958;2022-12-16T08:24:45;95198.66;;;0.43
6498;BMP280;3282;48.358;10.958;2022-12-16T08:27:30;95208.41;;;0.51
6498;BMP280;3282;48.358;10.958;2022-12-16T08:30:15;95210.25;;;0.59
6498;BMP280;3282;48.358;10.958;2022-12-16T08:33:00;95196.78;;;0.52
6498;BMP280;3282;48.358;10.958;2022-12-16T08:35:46;95203.28;;;0.64
6498;BMP280;3282;48.358;10.958;2022-12-16T08:38:32;95214.72;;;0.68
6498;BMP280;3282;48.358;10.958;2022-12-16T08:41:18;95211.19;;;0.64
6498;BMP280;3282;48.358;10.958;2022-12-16T08:44:03;95210.25;;;0.59
6498;BMP280;3282;48.358;10.958;2022-12-16T08:46:49;95225.84;;;0.74
6498;BMP280;3282;48.358;10.958;2022-12-16T08:49:34;95227.13;;;0.58
6498;BMP280;3282;48.358;10.958;2022-12-16T08:52:27;95244.91;;;0.70
6498;BMP280;3282;48.358;10.958;2022-12-16T08:55:12;95259.31;;;0.73
6498;BMP280;3282;48.358;10.958;2022-12-16T08:57:57;95258.53;;;0.73
6498;BMP280;3282;48.358;10.958;2022-12-16T09:00:42;95232.25;;;0.55
6498;BMP280;3282;48.358;10.958;2022-12-16T09:03:33;95263.63;;;0.69
6498;BMP280;3282;48.358;10.958;2022-12-16T09:06:18;95241.81;;;0.59
6498;BMP280;3282;48.358;10.958;2022-12-16T09:09:06;95269.06;;;0.64
6498;BMP280;3282;48.358;10.958;2022-12-16T09:11:51;95266.75;;;0.62
6498;BMP280;3282;48.358;10.958;2022-12-16T09:14:36;95268.28;;;0.72
6498;BMP280;3282;48.358;10.958;2022-12-16T09:17:22;95264.72;;;0.77
6498;BMP280;3282;48.358;10.958;2022-12-16T09:20:07;95282.19;;;0.90
6498;BMP280;3282;48.358;10.958;2022-12-16T09:22:52;95285.59;;;0.91
6498;BMP280;3282;48.358;10.958;2022-12-16T09:25:38;95279.88;;;0.89
6498;BMP280;3282;48.358;10.958;2022-12-16T09:28:23;95276.59;;;0.92
6498;BMP280;3282;48.358;10.958;2022-12-16T09:31:08;95265.47;;;0.86
6498;BMP280;3282;48.358;10.958;2022-12-16T09:33:54;95255.53;;;0.92
6498;BMP280;3282;48.358;10.958;2022-12-16T09:36:39;95273.19;;;1.00
6498;BMP280;3282;48.358;10.958;2022-12-16T09:39:24;95278.81;;;0.72
6498;BMP280;3282;48.358;10.958;2022-12-16T09:42:24;95276.31;;;0.76
6498;BMP280;3282;48.358;10.958;2022-12-16T09:48:28;95291.63;;;1.00
6498;BMP280;3282;48.358;10.958;2022-12-16T09:51:15;95285.44;;;0.96
6498;BMP280;3282;48.358;10.958;2022-12-16T09:54:01;95280.03;;;0.92
6498;BMP280;3282;48.358;10.958;2022-12-16T09:56:47;95297.06;;;0.95
6498;BMP280;3282;48.358;10.958;2022-12-16T09:59:36;95295.97;;;0.87
6498;BMP280;3282;48.358;10.958;2022-12-16T10:02:23;95302.03;;;0.88
6498;BMP280;3282;48.358;10.958;2022-12-16T10:08:51;95311.47;;;0.89
6498;BMP280;3282;48.358;10.958;2022-12-16T10:12:48;95279.28;;;0.65
6498;BMP280;3282;48.358;10.958;2022-12-16T10:21:20;95327.13;;;0.76
6498;BMP280;3282;48.358;10.958;2022-12-16T10:24:13;95328.81;;;0.81
6498;BMP280;3282;48.358;10.958;2022-12-16T10:27:13;95331.91;;;0.83
6498;BMP280;3282;48.358;10.958;2022-12-16T10:29:59;95333.47;;;0.84
6498;BMP280;3282;48.358;10.958;2022-12-16T10:32:47;95332.69;;;0.92
6498;BMP280;3282;48.358;10.958;2022-12-16T10:35:35;95333.75;;;1.00
6498;BMP280;3282;48.358;10.958;2022-12-16T10:38:29;95323.38;;;1.04
6498;BMP280;3282;48.358;10.958;2022-12-16T10:41:20;95335.59;;;1.08
6498;BMP280;3282;48.358;10.958;2022-12-16T10:47:38;95341.97;;;1.07
6498;BMP280;3282;48.358;10.958;2022-12-16T10:50:24;95354.34;;;1.16
6498;BMP280;3282;48.358;10.958;2022-12-16T10:53:18;95346.75;;;1.14
6498;BMP280;3282;48.358;10.958;2022-12-16T10:56:22;95350.16;;;1.15
6498;BMP280;3282;48.358;10.958;2022-12-16T10:59:10;95352.31;;;1.22
6498;BMP280;3282;48.358;10.958;2022-12-16T11:02:01;95361.31;;;1.21
6498;BMP280;3282;48.358;10.958;2022-12-16T11:04:48;95362.69;;;1.18
6498;BMP280;3282;48.358;10.958;2022-12-16T11:10:38;95369.97;;;1.21
6498;BMP280;3282;48.358;10.958;2022-12-16T11:13:35;95368.38;;;1.38
6498;BMP280;3282;48.358;10.958;2022-12-16T11:16:26;95370.09;;;1.42
6498;BMP280;3282;48.358;10.958;2022-12-16T11:22:18;95372.00;;;1.24
6498;BMP280;3282;48.358;10.958;2022-12-16T11:30:53;95367.50;;;1.16
6498;BMP280;3282;48.358;10.958;2022-12-16T11:33:39;95313.47;;;0.83
6498;BMP280;3282;48.358;10.958;2022-12-16T11:36:24;95367.34;;;1.21
6498;BMP280;3282;48.358;10.958;2022-12-16T11:39:14;95362.09;;;1.12
6498;BMP280;3282;48.358;10.958;2022-12-16T11:42:00;95362.72;;;1.09
6498;BMP280;3282;48.358;10.958;2022-12-16T11:44:51;95360.88;;;1.10
6498;BMP280;3282;48.358;10.958;2022-12-16T11:47:54;95390.00;;;1.13
6498;BMP280;3282;48.358;10.958;2022-12-16T11:50:50;95382.69;;;1.19
6498;BMP280;3282;48.358;10.958;2022-12-16T11:53:45;95394.78;;;1.20
6498;BMP280;3282;48.358;10.958;2022-12-16T11:56:36;95383.31;;;1.16
6498;BMP280;3282;48.358;10.958;2022-12-16T12:05:56;95388.41;;;1.30
6498;BMP280;3282;48.358;10.958;2022-12-16T12:08:49;95389.44;;;1.38
6498;BMP280;3282;48.358;10.958;2022-12-16T12:11:48;95380.03;;;1.37
6498;BMP280;3282;48.358;10.958;2022-12-16T12:14:52;95392.22;;;1.41
6498;BMP280;3282;48.358;10.958;2022-12-16T12:17:50;95386.53;;;1.30
6498;BMP280;3282;48.358;10.958;2022-12-16T12:20:51;95379.75;;;1.12
6498;BMP280;3282;48.358;10.958;2022-12-16T12:26:46;95403.00;;;1.18
6498;BMP280;3282;48.358;10.958;2022-12-16T12:29:40;95409.50;;;1.21
6498;BMP280;3282;48.358;10.958;2022-12-16T12:32:37;95402.69;;;1.20
6498;BMP280;3282;48.358;10.958;2022-12-16T12:36:14;95408.72;;;1.29
6498;BMP280;3282;48.358;10.958;2022-12-16T12:51:48;95425.44;;;1.25
6498;BMP280;3282;48.358;10.958;2022-12-16T12:57:31;95421.56;;;1.04
6498;BMP280;3282;48.358;10.958;2022-12-16T13:00:21;95441.25;;;1.16
6498;BMP280;3282;48.358;10.958;2022-12-16T13:06:04;95444.03;;;1.19
6498;BMP280;3282;48.358;10.958;2022-12-16T13:11:35;95433.19;;;1.21
6498;BMP280;3282;48.358;10.958;2022-12-16T13:17:18;95451.19;;;1.28
6498;BMP280;3282;48.358;10.958;2022-12-16T13:20:32;95442.97;;;1.29
6498;BMP280;3282;48.358;10.958;2022-12-16T13:23:31;95430.41;;;1.08
6498;BMP280;3282;48.358;10.958;2022-12-16T13:26:18;95461.69;;;1.19
6498;BMP280;3282;48.358;10.958;2022-12-16T13:32:00;95471.47;;;1.18
6498;BMP280;3282;48.358;10.958;2022-12-16T13:34:58;95473.50;;;1.13
6498;BMP280;3282;48.358;10.958;2022-12-16T13:37:57;95478.59;;;1.09
6498;BMP280;3282;48.358;10.958;2022-12-16T13:40:51;95491.47;;;1.11
6498;BMP280;3282;48.358;10.958;2022-12-16T13:52:43;95502.63;;;1.07
6498;BMP280;3282;48.358;10.958;2022-12-16T13:55:55;95510.50;;;0.99
6498;BMP280;3282;48.358;10.958;2022-12-16T13:58:44;95516.81;;;0.89
6498;BMP280;3282;48.358;10.958;2022-12-16T14:01:50;95526.13;;;0.95
6498;BMP280;3282;48.358;10.958;2022-12-16T14:04:42;95529.97;;;0.89
6498;BMP280;3282;48.358;10.958;2022-12-16T14:07:30;95535.09;;;0.85
6498;BMP280;3282;48.358;10.958;2022-12-16T14:19:20;95534.69;;;0.51
6498;BMP280;3282;48.358;10.958;2022-12-16T14:22:29;95550.19;;;0.62
6498;BMP280;3282;48.358;10.958;2022-12-16T14:25:21;95552.19;;;0.65
6498;BMP280;3282;48.358;10.958;2022-12-16T14:28:15;95559.16;;;0.60
6498;BMP280;3282;48.358;10.958;2022-12-16T14:31:20;95566.88;;;0.57
6498;BMP280;3282;48.358;10.958;2022-12-16T14:34:21;95507.88;;;0.08
6498;BMP280;3282;48.358;10.958;2022-12-16T14:37:18;95523.53;;;0.14
6498;BMP280;3282;48.358;10.958;2022-12-16T14:40:18;95573.78;;;0.44
6498;BMP280;3282;48.358;10.958;2022-12-16T14:43:11;95580.13;;;0.43
6498;BMP280;3282;48.358;10.958;2022-12-16T14:45:57;95561.22;;;0.32
6498;BMP280;3282;48.358;10.958;2022-12-16T14:48:47;95584.41;;;0.39
6498;BMP280;3282;48.358;10.958;2022-12-16T14:51:37;95567.53;;;0.22
6498;BMP280;3282;48.358;10.958;2022-12-16T14:57:16;95564.06;;;0.13
6498;BMP280;3282;48.358;10.958;2022-12-16T15:03:13;95591.53;;;0.06
6498;BMP280;3282;48.358;10.958;2022-12-16T15:06:04;95590.22;;;-0.05
6498;BMP280;3282;48.358;10.958;2022-12-16T15:08:56;95608.78;;;-0.02
6498;BMP280;3282;48.358;10.958;2022-12-16T15:11:42;95605.69;;;-0.04
6498;BMP280;3282;48.358;10.958;2022-12-16T15:14:31;95610.75;;;-0.07
6498;BMP280;3282;48.358;10.958;2022-12-16T15:17:22;95604.88;;;-0.13
6498;BMP280;3282;48.358;10.958;2022-12-16T15:20:22;95629.06;;;-0.02
6498;BMP280;3282;48.358;10.958;2022-12-16T15:23:22;95634.91;;;-0.05
6498;BMP280;3282;48.358;10.958;2022-12-16T15:26:08;95624.03;;;-0.13
6498;BMP280;3282;48.358;10.958;2022-12-16T15:29:00;95642.03;;;-0.06
6498;BMP280;3282;48.358;10.958;2022-12-16T15:31:46;95639.28;;;-0.01
6498;BMP280;3282;48.358;10.958;2022-12-16T15:34:37;95646.69;;;-0.03
6498;BMP280;3282;48.358;10.958;2022-12-16T15:37:35;95655.84;;;0.00
6498;BMP280;3282;48.358;10.958;2022-12-16T15:40:32;95669.19;;;0.04
6498;BMP280;3282;48.358;10.958;2022-12-16T15:43:29;95666.72;;;0.07
6498;BMP280;3282;48.358;10.958;2022-12-16T15:46:26;95667.84;;;0.15
6498;BMP280;3282;48.358;10.958;2022-12-16T15:49:34;95658.38;;;0.05
6498;BMP280;3282;48.358;10.958;2022-12-16T16:01:06;95666.16;;;-0.04
6498;BMP280;3282;48.358;10.958;2022-12-16T16:03:54;95675.13;;;-0.05
6498;BMP280;3282;48.358;10.958;2022-12-16T16:06:50;95690.59;;;-0.03
6498;BMP280;3282;48.358;10.958;2022-12-16T16:09:38;95690.41;;;-0.07
6498;BMP280;3282;48.358;10.958;2022-12-16T16:12:24;95706.00;;;-0.10
6498;BMP280;3282;48.358;10.958;2022-12-16T16:15:12;95692.56;;;-0.09
6498;BMP280;3282;48.358;10.958;2022-12-16T16:21:06;95704.91;;;0.05
6498;BMP280;3282;48.358;10.958;2022-12-16T16:23:51;95703.56;;;-0.07
6498;BMP280;3282;48.358;10.958;2022-12-16T16:26:36;95695.38;;;-0.05
6498;BMP280;3282;48.358;10.958;2022-12-16T16:29:21;95716.22;;;0.05
6498;BMP280;3282;48.358;10.958;2022-12-16T16:32:07;95714.94;;;0.03
6498;BMP280;3282;48.358;10.958;2022-12-16T16:34:53;95715.34;;;-0.04
6498;BMP280;3282;48.358;10.958;2022-12-16T16:37:38;95715.47;;;-0.09
6498;BMP280;3282;48.358;10.958;2022-12-16T16:40:31;95720.59;;;-0.18
6498;BMP280;3282;48.358;10.958;2022-12-16T16:43:17;95728.13;;;-0.11
6498;BMP280;3282;48.358;10.958;2022-12-16T16:46:06;95732.28;;;-0.10
6498;BMP280;3282;48.358;10.958;2022-12-16T16:48:58;95734.81;;;-0.05
6498;BMP280;3282;48.358;10.958;2022-12-16T16:51:44;95742.81;;;-0.10
6498;BMP280;3282;48.358;10.958;2022-12-16T16:54:29;95705.91;;;-0.33
6498;BMP280;3282;48.358;10.958;2022-12-16T16:57:14;95728.78;;;-0.20
6498;BMP280;3282;48.358;10.958;2022-12-16T16:59:59;95709.34;;;-0.33
6498;BMP280;3282;48.358;10.958;2022-12-16T17:02:44;95750.09;;;-0.07
6498;BMP280;3282;48.358;10.958;2022-12-16T17:05:30;95744.38;;;-0.09
6498;BMP280;3282;48.358;10.958;2022-12-16T17:08:15;95759.38;;;-0.10
6498;BMP280;3282;48.358;10.958;2022-12-16T17:11:00;95767.06;;;-0.14
6498;BMP280;3282;48.358;10.958;2022-12-16T17:13:46;95775.03;;;-0.05
6498;BMP280;3282;48.358;10.958;2022-12-16T17:16:31;95774.84;;;-0.08
6498;BMP280;3282;48.358;10.958;2022-12-16T17:19:16;95773.50;;;-0.06
6498;BMP280;3282;48.358;10.958;2022-12-16T17:22:01;95791.88;;;-0.06
6498;BMP280;3282;48.358;10.958;2022-12-16T17:24:47;95791.22;;;-0.11
6498;BMP280;3282;48.358;10.958;2022-12-16T17:27:32;95793.66;;;-0.15
6498;BMP280;3282;48.358;10.958;2022-12-16T17:30:20;95799.47;;;-0.18
6498;BMP280;3282;48.358;10.958;2022-12-16T17:33:13;95773.06;;;-0.41
6498;BMP280;3282;48.358;10.958;2022-12-16T17:35:59;95762.25;;;-0.54
6498;BMP280;3282;48.358;10.958;2022-12-16T17:38:45;95801.50;;;-0.29
6498;BMP280;3282;48.358;10.958;2022-12-16T17:41:31;95823.50;;;-0.25
6498;BMP280;3282;48.358;10.958;2022-12-16T17:44:17;95818.84;;;-0.28
6498;BMP280;3282;48.358;10.958;2022-12-16T17:47:03;95827.72;;;-0.24
6498;BMP280;3282;48.358;10.958;2022-12-16T17:49:48;95835.31;;;-0.22
6498;BMP280;3282;48.358;10.958;2022-12-16T17:52:33;95833.44;;;-0.22
6498;BMP280;3282;48.358;10.958;2022-12-16T17:55:18;95822.59;;;-0.34
6498;BMP280;3282;48.358;10.958;2022-12-16T17:58:04;95846.19;;;-0.29
6498;BMP280;3282;48.358;10.958;2022-12-16T18:00:49;95845.72;;;-0.31
6498;BMP280;3282;48.358;10.958;2022-12-16T18:03:33;95851.72;;;-0.31
6498;BMP280;3282;48.358;10.958;2022-12-16T18:06:19;95851.50;;;-0.34
6498;BMP280;3282;48.358;10.958;2022-12-16T18:09:04;95849.41;;;-0.32
6498;BMP280;3282;48.358;10.958;2022-12-16T18:11:50;95857.00;;;-0.31
6498;BMP280;3282;48.358;10.958;2022-12-16T18:14:35;95868.84;;;-0.33
6498;BMP280;3282;48.358;10.958;2022-12-16T18:17:22;95873.78;;;-0.46